sensor_id;sensor_type;location;lat;lon;timestamp;P1;durP1;ratioP1;P2;durP2;ratioP2
73104;SDS011;61296;50.526;30.792;2022-07-21T00:06:22;2.50;;;1.73;;
73104;SDS011;61296;50.526;30.792;2022-07-21T00:21:41;2.15;;;1.83;;
73104;SDS011;61296;50.526;30.792;2022-07-21T00:37:00;5.97;;;2.00;;
73104;SDS011;61296;50.526;30.792;2022-07-21T00:52:20;2.35;;;1.40;;
73104;SDS011;61296;50.526;30.792;2022-07-21T01:07:40;1.70;;;1.40;;
73104;SDS011;61296;50.526;30.792;2022-07-21T01:23:04;2.25;;;1.45;;
73104;SDS011;61296;50.526;30.792;2022-07-21T01:38:24;3.30;;;2.30;;
73104;SDS011;61296;50.526;30.792;2022-07-21T01:54:02;9.65;;;3.15;;
73104;SDS011;61296;50.526;30.792;2022-07-21T02:09:22;7.28;;;3.03;;
73104;SDS011;61296;50.526;30.792;2022-07-21T02:24:41;3.40;;;1.73;;
73104;SDS011;61296;50.526;30.792;2022-07-21T02:40:01;2.33;;;1.52;;
73104;SDS011;61296;50.526;30.792;2022-07-21T02:55:20;7.78;;;1.65;;
73104;SDS011;61296;50.526;30.792;2022-07-21T03:10:40;3.92;;;1.20;;
73104;SDS011;61296;50.526;30.792;2022-07-21T03:25:59;2.38;;;1.52;;
73104;SDS011;61296;50.526;30.792;2022-07-21T03:41:19;3.30;;;1.70;;
73104;SDS011;61296;50.526;30.792;2022-07-21T03:56:38;5.45;;;1.88;;
73104;SDS011;61296;50.526;30.792;2022-07-21T04:11:57;2.50;;;1.58;;
73104;SDS011;61296;50.526;30.792;2022-07-21T04:27:16;5.10;;;1.73;;
73104;SDS011;61296;50.526;30.792;2022-07-21T04:42:36;6.28;;;2.50;;
73104;SDS011;61296;50.526;30.792;2022-07-21T04:57:55;2.55;;;1.60;;
73104;SDS011;61296;50.526;30.792;2022-07-21T05:13:16;6.43;;;1.83;;
73104;SDS011;61296;50.526;30.792;2022-07-21T05:28:35;2.95;;;1.60;;
73104;SDS011;61296;50.526;30.792;2022-07-21T05:43:54;4.95;;;1.55;;
73104;SDS011;61296;50.526;30.792;2022-07-21T05:59:14;3.80;;;1.45;;
73104;SDS011;61296;50.526;30.792;2022-07-21T06:14:33;1.48;;;1.13;;
73104;SDS011;61296;50.526;30.792;2022-07-21T06:29:53;3.15;;;1.20;;
73104;SDS011;61296;50.526;30.792;2022-07-21T06:45:13;4.25;;;1.10;;
73104;SDS011;61296;50.526;30.792;2022-07-21T07:00:32;4.60;;;1.45;;
73104;SDS011;61296;50.526;30.792;2022-07-21T07:15:51;2.47;;;0.68;;
73104;SDS011;61296;50.526;30.792;2022-07-21T07:31:11;3.92;;;1.08;;
73104;SDS011;61296;50.526;30.792;2022-07-21T07:46:30;6.30;;;1.30;;
73104;SDS011;61296;50.526;30.792;2022-07-21T08:01:50;8.30;;;1.00;;
73104;SDS011;61296;50.526;30.792;2022-07-21T08:17:09;5.70;;;1.08;;
73104;SDS011;61296;50.526;30.792;2022-07-21T08:32:28;2.42;;;0.88;;
73104;SDS011;61296;50.526;30.792;2022-07-21T08:47:54;5.78;;;1.00;;
73104;SDS011;61296;50.526;30.792;2022-07-21T09:18:48;2.85;;;0.80;;
73104;SDS011;61296;50.526;30.792;2022-07-21T09:34:12;6.93;;;0.80;;
73104;SDS011;61296;50.526;30.792;2022-07-21T09:49:33;2.47;;;1.17;;
73104;SDS011;61296;50.526;30.792;2022-07-21T10:04:59;7.88;;;1.25;;
73104;SDS011;61296;50.526;30.792;2022-07-21T10:20:26;6.80;;;1.50;;
73104;SDS011;61296;50.526;30.792;2022-07-21T10:35:49;5.07;;;1.58;;
73104;SDS011;61296;50.526;30.792;2022-07-21T10:51:12;4.07;;;2.10;;
73104;SDS011;61296;50.526;30.792;2022-07-21T11:06:33;2.55;;;1.85;;
73104;SDS011;61296;50.526;30.792;2022-07-21T11:21:54;5.82;;;2.35;;
73104;SDS011;61296;50.526;30.792;2022-07-21T11:37:18;4.95;;;2.13;;
73104;SDS011;61296;50.526;30.792;2022-07-21T11:52:45;3.45;;;2.30;;
73104;SDS011;61296;50.526;30.792;2022-07-21T12:08:06;5.07;;;2.08;;
73104;SDS011;61296;50.526;30.792;2022-07-21T12:23:27;4.43;;;2.53;;
73104;SDS011;61296;50.526;30.792;2022-07-21T12:38:49;4.53;;;2.33;;
73104;SDS011;61296;50.526;30.792;2022-07-21T12:54:09;4.45;;;2.50;;
73104;SDS011;61296;50.526;30.792;2022-07-21T13:09:29;7.25;;;3.20;;
73104;SDS011;61296;50.526;30.792;2022-07-21T13:24:50;6.15;;;3.08;;
73104;SDS011;61296;50.526;30.792;2022-07-21T13:40:09;6.80;;;3.55;;
73104;SDS011;61296;50.526;30.792;2022-07-21T13:55:29;5.88;;;3.17;;
73104;SDS011;61296;50.526;30.792;2022-07-21T14:10:49;4.50;;;3.03;;
73104;SDS011;61296;50.526;30.792;2022-07-21T14:26:08;7.43;;;3.22;;
73104;SDS011;61296;50.526;30.792;2022-07-21T14:41:28;4.80;;;3.72;;
73104;SDS011;61296;50.526;30.792;2022-07-21T14:56:48;5.53;;;2.83;;
73104;SDS011;61296;50.526;30.792;2022-07-21T15:12:08;4.50;;;3.78;;
73104;SDS011;61296;50.526;30.792;2022-07-21T15:27:27;5.00;;;3.10;;
73104;SDS011;61296;50.526;30.792;2022-07-21T15:42:47;5.35;;;3.50;;
73104;SDS011;61296;50.526;30.792;2022-07-21T15:58:06;3.38;;;3.08;;
73104;SDS011;61296;50.526;30.792;2022-07-21T16:41:02;4.50;;;3.97;;
73104;SDS011;61296;50.526;30.792;2022-07-21T16:56:22;4.75;;;3.65;;
73104;SDS011;61296;50.526;30.792;2022-07-21T17:11:42;6.85;;;3.83;;
73104;SDS011;61296;50.526;30.792;2022-07-21T17:27:02;7.75;;;4.22;;
73104;SDS011;61296;50.526;30.792;2022-07-21T17:42:22;5.97;;;4.05;;
73104;SDS011;61296;50.526;30.792;2022-07-21T17:57:42;5.03;;;3.90;;
73104;SDS011;61296;50.526;30.792;2022-07-21T18:13:34;4.55;;;3.05;;
73104;SDS011;61296;50.526;30.792;2022-07-21T18:28:53;5.50;;;2.45;;
73104;SDS011;61296;50.526;30.792;2022-07-21T18:44:13;5.00;;;2.65;;
73104;SDS011;61296;50.526;30.792;2022-07-21T18:59:32;7.40;;;4.22;;
73104;SDS011;61296;50.526;30.792;2022-07-21T19:14:52;10.43;;;5.25;;
73104;SDS011;61296;50.526;30.792;2022-07-21T19:30:11;9.02;;;4.72;;
73104;SDS011;61296;50.526;30.792;2022-07-21T19:45:36;15.13;;;5.57;;
73104;SDS011;61296;50.526;30.792;2022-07-21T20:00:56;11.40;;;6.07;;
73104;SDS011;61296;50.526;30.792;2022-07-21T20:16:15;11.02;;;6.53;;
73104;SDS011;61296;50.526;30.792;2022-07-21T20:31:36;11.77;;;6.65;;
73104;SDS011;61296;50.526;30.792;2022-07-21T20:46:55;9.02;;;5.85;;
73104;SDS011;61296;50.526;30.792;2022-07-21T21:02:15;10.75;;;5.78;;
73104;SDS011;61296;50.526;30.792;2022-07-21T21:17:34;8.27;;;5.18;;
73104;SDS011;61296;50.526;30.792;2022-07-21T21:32:54;8.40;;;4.97;;
73104;SDS011;61296;50.526;30.792;2022-07-21T21:48:13;8.93;;;5.18;;
73104;SDS011;61296;50.526;30.792;2022-07-21T22:03:33;8.70;;;5.55;;
73104;SDS011;61296;50.526;30.792;2022-07-21T22:18:52;9.30;;;5.80;;
73104;SDS011;61296;50.526;30.792;2022-07-21T22:34:13;10.10;;;5.68;;
73104;SDS011;61296;50.526;30.792;2022-07-21T22:49:32;12.05;;;6.35;;
73104;SDS011;61296;50.526;30.792;2022-07-21T23:04:52;9.18;;;5.72;;
73104;SDS011;61296;50.526;30.792;2022-07-21T23:20:12;12.02;;;6.72;;
73104;SDS011;61296;50.526;30.792;2022-07-21T23:35:31;10.45;;;6.10;;
73104;SDS011;61296;50.526;30.792;2022-07-21T23:50:51;11.20;;;6.45;;
